sensor_id;sensor_type;location;lat;lon;timestamp;pressure;altitude;pressure_sealevel;temperature;humidity
46412;BME280;32113;42.012;24.870;2023-08-20T00:01:38;99079.94;;;25.19;44.53
46412;BME280;32113;42.012;24.870;2023-08-20T00:04:04;99086.50;;;25.38;44.08
46412;BME280;32113;42.012;24.870;2023-08-20T00:06:29;99076.25;;;25.60;43.49
46412;BME280;32113;42.012;24.870;2023-08-20T00:08:55;99071.53;;;25.52;43.78
46412;BME280;32113;42.012;24.870;2023-08-20T00:11:20;99065.78;;;25.47;44.09
46412;BME280;32113;42.012;24.870;2023-08-20T00:13:45;99071.56;;;25.39;44.12
46412;BME280;32113;42.012;24.870;2023-08-20T00:16:11;99066.59;;;25.47;44.02
46412;BME280;32113;42.012;24.870;2023-08-20T00:18:36;99078.13;;;25.33;44.09
46412;BME280;32113;42.012;24.870;2023-08-20T00:21:03;99079.19;;;25.30;44.18
46412;BME280;32113;42.012;24.870;2023-08-20T00:23:29;99075.91;;;25.27;44.44
46412;BME280;32113;42.012;24.870;2023-08-20T00:25:55;99071.84;;;25.23;44.66
46412;BME280;32113;42.012;24.870;2023-08-20T00:28:20;99078.03;;;25.22;44.68
46412;BME280;32113;42.012;24.870;2023-08-20T00:30:45;99068.28;;;25.24;44.52
46412;BME280;32113;42.012;24.870;2023-08-20T00:33:11;99076.56;;;25.17;44.50
46412;BME280;32113;42.012;24.870;2023-08-20T00:35:36;99071.81;;;25.36;44.55
46412;BME280;32113;42.012;24.870;2023-08-20T00:38:01;99066.66;;;25.34;44.16
46412;BME280;32113;42.012;24.870;2023-08-20T00:40:27;99072.22;;;25.42;44.30
46412;BME280;32113;42.012;24.870;2023-08-20T00:42:53;99076.47;;;25.56;43.70
46412;BME280;32113;42.012;24.870;2023-08-20T00:45:18;99077.84;;;25.49;43.90
46412;BME280;32113;42.012;24.870;2023-08-20T00:47:43;99070.66;;;25.64;43.96
46412;BME280;32113;42.012;24.870;2023-08-20T00:50:09;99069.16;;;25.73;43.60
46412;BME280;32113;42.012;24.870;2023-08-20T00:52:35;99071.31;;;25.79;43.72
46412;BME280;32113;42.012;24.870;2023-08-20T00:55:03;99077.13;;;25.96;43.26
46412;BME280;32113;42.012;24.870;2023-08-20T00:57:31;99080.25;;;26.01;43.20
46412;BME280;32113;42.012;24.870;2023-08-20T00:59:57;99078.00;;;26.08;42.84
46412;BME280;32113;42.012;24.870;2023-08-20T01:02:23;99067.13;;;26.01;43.09
46412;BME280;32113;42.012;24.870;2023-08-20T01:04:48;99066.66;;;26.07;42.78
46412;BME280;32113;42.012;24.870;2023-08-20T01:12:58;99064.13;;;25.70;43.49
46412;BME280;32113;42.012;24.870;2023-08-20T01:15:23;99073.31;;;25.51;43.90
46412;BME280;32113;42.012;24.870;2023-08-20T01:17:49;99070.44;;;25.67;43.64
46412;BME280;32113;42.012;24.870;2023-08-20T01:20:15;99065.28;;;25.41;44.38
46412;BME280;32113;42.012;24.870;2023-08-20T01:30:31;99075.31;;;25.61;43.96
46412;BME280;32113;42.012;24.870;2023-08-20T01:32:57;99065.53;;;25.50;44.22
46412;BME280;32113;42.012;24.870;2023-08-20T01:35:23;99067.00;;;25.54;44.42
46412;BME280;32113;42.012;24.870;2023-08-20T01:37:49;99067.09;;;25.65;44.27
46412;BME280;32113;42.012;24.870;2023-08-20T01:40:14;99063.03;;;25.61;43.97
46412;BME280;32113;42.012;24.870;2023-08-20T01:42:40;99066.22;;;25.40;44.37
46412;BME280;32113;42.012;24.870;2023-08-20T01:45:05;99063.84;;;25.24;44.95
46412;BME280;32113;42.012;24.870;2023-08-20T01:47:31;99062.22;;;25.10;45.26
46412;BME280;32113;42.012;24.870;2023-08-20T01:49:57;99063.28;;;25.08;45.55
46412;BME280;32113;42.012;24.870;2023-08-20T01:52:22;99055.34;;;24.83;45.78
46412;BME280;32113;42.012;24.870;2023-08-20T01:54:48;99054.47;;;24.70;46.40
46412;BME280;32113;42.012;24.870;2023-08-20T01:57:13;99053.47;;;24.85;46.23
46412;BME280;32113;42.012;24.870;2023-08-20T01:59:38;99054.09;;;24.76;46.24
46412;BME280;32113;42.012;24.870;2023-08-20T02:02:03;99061.50;;;24.82;46.48
46412;BME280;32113;42.012;24.870;2023-08-20T02:04:29;99056.72;;;24.89;46.08
46412;BME280;32113;42.012;24.870;2023-08-20T02:06:54;99051.78;;;24.45;46.98
46412;BME280;32113;42.012;24.870;2023-08-20T02:09:20;99048.22;;;24.33;47.38
46412;BME280;32113;42.012;24.870;2023-08-20T02:11:45;99053.97;;;24.12;48.16
46412;BME280;32113;42.012;24.870;2023-08-20T02:14:11;99049.28;;;24.03;48.22
46412;BME280;32113;42.012;24.870;2023-08-20T02:16:36;99057.44;;;23.85;48.98
46412;BME280;32113;42.012;24.870;2023-08-20T02:19:02;99048.72;;;23.72;49.43
46412;BME280;32113;42.012;24.870;2023-08-20T02:21:28;99052.78;;;23.76;49.35
46412;BME280;32113;42.012;24.870;2023-08-20T02:23:53;99046.63;;;23.77;49.32
46412;BME280;32113;42.012;24.870;2023-08-20T02:26:18;99048.84;;;23.83;49.35
46412;BME280;32113;42.012;24.870;2023-08-20T02:28:44;99058.00;;;23.91;49.05
46412;BME280;32113;42.012;24.870;2023-08-20T02:31:09;99056.38;;;23.88;49.27
46412;BME280;32113;42.012;24.870;2023-08-20T02:33:34;99051.91;;;24.03;49.16
46412;BME280;32113;42.012;24.870;2023-08-20T02:36:03;99056.81;;;23.95;49.34
46412;BME280;32113;42.012;24.870;2023-08-20T02:38:28;99053.56;;;23.91;49.50
46412;BME280;32113;42.012;24.870;2023-08-20T02:40:54;99061.22;;;23.81;49.84
46412;BME280;32113;42.012;24.870;2023-08-20T02:43:19;99061.94;;;23.83;49.53
46412;BME280;32113;42.012;24.870;2023-08-20T02:45:44;99055.66;;;23.86;49.49
46412;BME280;32113;42.012;24.870;2023-08-20T02:48:10;99059.50;;;23.80;49.52
46412;BME280;32113;42.012;24.870;2023-08-20T02:50:35;99061.47;;;23.64;49.96
46412;BME280;32113;42.012;24.870;2023-08-20T02:53:00;99058.34;;;23.71;49.87
46412;BME280;32113;42.012;24.870;2023-08-20T02:55:26;99064.66;;;23.82;49.74
46412;BME280;32113;42.012;24.870;2023-08-20T02:57:51;99066.47;;;23.67;50.07
46412;BME280;32113;42.012;24.870;2023-08-20T03:00:16;99059.06;;;23.73;49.97
46412;BME280;32113;42.012;24.870;2023-08-20T03:02:41;99059.28;;;23.70;50.11
46412;BME280;32113;42.012;24.870;2023-08-20T03:05:07;99056.59;;;23.72;50.18
46412;BME280;32113;42.012;24.870;2023-08-20T03:07:33;99059.38;;;23.69;50.22
46412;BME280;32113;42.012;24.870;2023-08-20T03:09:59;99060.28;;;23.82;49.74
46412;BME280;32113;42.012;24.870;2023-08-20T03:12:24;99061.78;;;23.99;49.13
46412;BME280;32113;42.012;24.870;2023-08-20T03:14:49;99063.63;;;23.84;49.37
46412;BME280;32113;42.012;24.870;2023-08-20T03:17:14;99059.84;;;23.88;49.31
46412;BME280;32113;42.012;24.870;2023-08-20T03:19:47;99059.56;;;23.93;49.45
46412;BME280;32113;42.012;24.870;2023-08-20T03:22:18;99066.56;;;23.93;49.37
46412;BME280;32113;42.012;24.870;2023-08-20T03:24:43;99066.13;;;23.86;49.52
46412;BME280;32113;42.012;24.870;2023-08-20T03:27:08;99070.13;;;23.92;49.33
46412;BME280;32113;42.012;24.870;2023-08-20T03:29:33;99068.66;;;23.87;49.52
46412;BME280;32113;42.012;24.870;2023-08-20T03:31:59;99060.66;;;23.76;49.97
46412;BME280;32113;42.012;24.870;2023-08-20T03:34:24;99062.94;;;23.68;49.97
46412;BME280;32113;42.012;24.870;2023-08-20T03:36:49;99065.94;;;23.61;50.25
46412;BME280;32113;42.012;24.870;2023-08-20T03:39:14;99065.03;;;23.62;50.25
46412;BME280;32113;42.012;24.870;2023-08-20T03:41:40;99062.28;;;23.36;50.79
46412;BME280;32113;42.012;24.870;2023-08-20T03:44:05;99062.66;;;23.45;50.71
46412;BME280;32113;42.012;24.870;2023-08-20T03:46:30;99052.41;;;23.55;50.52
46412;BME280;32113;42.012;24.870;2023-08-20T03:48:56;99065.81;;;23.50;50.67
46412;BME280;32113;42.012;24.870;2023-08-20T03:51:21;99068.84;;;23.44;50.81
46412;BME280;32113;42.012;24.870;2023-08-20T03:53:46;99060.81;;;23.60;50.56
46412;BME280;32113;42.012;24.870;2023-08-20T03:56:11;99069.69;;;23.57;50.43
46412;BME280;32113;42.012;24.870;2023-08-20T03:58:37;99063.88;;;23.67;50.35
46412;BME280;32113;42.012;24.870;2023-08-20T04:01:02;99065.88;;;23.76;50.24
46412;BME280;32113;42.012;24.870;2023-08-20T04:03:28;99065.88;;;23.76;50.12
46412;BME280;32113;42.012;24.870;2023-08-20T04:05:54;99063.88;;;23.67;50.22
46412;BME280;32113;42.012;24.870;2023-08-20T04:08:19;99072.84;;;23.77;49.95
46412;BME280;32113;42.012;24.870;2023-08-20T04:10:44;99067.84;;;23.59;50.45
46412;BME280;32113;42.012;24.870;2023-08-20T04:13:12;99070.59;;;23.71;50.25
46412;BME280;32113;42.012;24.870;2023-08-20T04:15:39;99073.66;;;23.78;49.97
46412;BME280;32113;42.012;24.870;2023-08-20T04:18:04;99078.72;;;23.94;49.76
46412;BME280;32113;42.012;24.870;2023-08-20T04:20:29;99085.63;;;23.82;49.69
46412;BME280;32113;42.012;24.870;2023-08-20T04:22:55;99076.19;;;23.79;49.83
46412;BME280;32113;42.012;24.870;2023-08-20T04:25:20;99074.84;;;23.86;49.82
46412;BME280;32113;42.012;24.870;2023-08-20T04:27:45;99078.31;;;24.00;49.49
46412;BME280;32113;42.012;24.870;2023-08-20T04:30:11;99076.25;;;24.05;49.11
46412;BME280;32113;42.012;24.870;2023-08-20T04:32:36;99077.28;;;24.02;49.13
46412;BME280;32113;42.012;24.870;2023-08-20T04:35:02;99080.66;;;24.05;49.23
46412;BME280;32113;42.012;24.870;2023-08-20T04:37:27;99076.88;;;24.09;49.45
46412;BME280;32113;42.012;24.870;2023-08-20T04:39:52;99079.88;;;24.17;48.83
46412;BME280;32113;42.012;24.870;2023-08-20T04:42:17;99082.38;;;24.19;48.86
46412;BME280;32113;42.012;24.870;2023-08-20T04:44:43;99074.09;;;24.25;48.86
46412;BME280;32113;42.012;24.870;2023-08-20T04:47:14;99081.34;;;24.21;49.01
46412;BME280;32113;42.012;24.870;2023-08-20T04:49:39;99083.41;;;24.16;49.16
46412;BME280;32113;42.012;24.870;2023-08-20T04:52:04;99088.66;;;24.16;49.34
46412;BME280;32113;42.012;24.870;2023-08-20T04:54:30;99083.31;;;24.18;49.22
46412;BME280;32113;42.012;24.870;2023-08-20T04:56:55;99084.06;;;24.20;49.22
46412;BME280;32113;42.012;24.870;2023-08-20T04:59:20;99071.25;;;24.28;48.75
46412;BME280;32113;42.012;24.870;2023-08-20T05:01:46;99066.78;;;24.17;49.21
46412;BME280;32113;42.012;24.870;2023-08-20T05:04:11;99071.72;;;23.94;49.71
46412;BME280;32113;42.012;24.870;2023-08-20T05:06:37;99078.50;;;24.11;49.59
46412;BME280;32113;42.012;24.870;2023-08-20T05:09:02;99085.63;;;24.22;49.46
46412;BME280;32113;42.012;24.870;2023-08-20T05:11:28;99086.69;;;24.33;48.96
46412;BME280;32113;42.012;24.870;2023-08-20T05:13:56;99084.59;;;24.25;49.24
46412;BME280;32113;42.012;24.870;2023-08-20T05:16:21;99074.53;;;24.32;49.32
46412;BME280;32113;42.012;24.870;2023-08-20T05:18:47;99083.56;;;24.40;49.16
46412;BME280;32113;42.012;24.870;2023-08-20T05:21:12;99087.22;;;24.51;48.70
46412;BME280;32113;42.012;24.870;2023-08-20T05:23:38;99093.94;;;24.55;48.45
46412;BME280;32113;42.012;24.870;2023-08-20T05:26:04;99095.22;;;24.62;48.14
46412;BME280;32113;42.012;24.870;2023-08-20T05:28:29;99090.47;;;24.67;47.99
46412;BME280;32113;42.012;24.870;2023-08-20T05:30:57;99093.84;;;24.70;48.16
46412;BME280;32113;42.012;24.870;2023-08-20T05:33:23;99092.50;;;24.64;48.44
46412;BME280;32113;42.012;24.870;2023-08-20T05:35:48;99095.72;;;24.80;48.03
46412;BME280;32113;42.012;24.870;2023-08-20T05:38:14;99097.72;;;24.90;47.77
46412;BME280;32113;42.012;24.870;2023-08-20T05:40:39;99105.25;;;24.82;47.96
46412;BME280;32113;42.012;24.870;2023-08-20T05:43:04;99105.00;;;24.86;47.62
46412;BME280;32113;42.012;24.870;2023-08-20T05:45:29;99108.94;;;24.79;48.04
46412;BME280;32113;42.012;24.870;2023-08-20T05:47:55;99102.38;;;24.86;47.90
46412;BME280;32113;42.012;24.870;2023-08-20T05:50:20;99113.47;;;24.77;48.19
46412;BME280;32113;42.012;24.870;2023-08-20T05:52:45;99109.03;;;24.77;48.14
46412;BME280;32113;42.012;24.870;2023-08-20T05:55:10;99113.22;;;24.80;48.13
46412;BME280;32113;42.012;24.870;2023-08-20T05:57:36;99117.47;;;24.96;48.32
46412;BME280;32113;42.012;24.870;2023-08-20T06:00:02;99114.94;;;24.94;48.26
46412;BME280;32113;42.012;24.870;2023-08-20T06:02:29;99116.41;;;24.98;47.49
46412;BME280;32113;42.012;24.870;2023-08-20T06:04:54;99118.72;;;24.90;47.94
46412;BME280;32113;42.012;24.870;2023-08-20T06:07:19;99115.13;;;25.17;47.96
46412;BME280;32113;42.012;24.870;2023-08-20T06:09:45;99114.78;;;25.22;47.20
46412;BME280;32113;42.012;24.870;2023-08-20T06:12:10;99112.16;;;25.22;46.96
46412;BME280;32113;42.012;24.870;2023-08-20T06:14:35;99109.22;;;25.26;46.66
46412;BME280;32113;42.012;24.870;2023-08-20T06:17:01;99104.19;;;25.23;47.09
46412;BME280;32113;42.012;24.870;2023-08-20T06:19:26;99115.59;;;25.35;46.78
46412;BME280;32113;42.012;24.870;2023-08-20T06:21:51;99110.66;;;25.43;46.52
46412;BME280;32113;42.012;24.870;2023-08-20T06:24:16;99113.56;;;25.52;46.91
46412;BME280;32113;42.012;24.870;2023-08-20T06:26:42;99123.16;;;25.77;46.14
46412;BME280;32113;42.012;24.870;2023-08-20T06:29:09;99113.53;;;25.89;45.55
46412;BME280;32113;42.012;24.870;2023-08-20T06:31:34;99116.00;;;26.04;45.52
46412;BME280;32113;42.012;24.870;2023-08-20T06:34:00;99118.06;;;26.23;45.01
46412;BME280;32113;42.012;24.870;2023-08-20T06:36:25;99123.03;;;26.28;44.38
46412;BME280;32113;42.012;24.870;2023-08-20T06:38:50;99116.81;;;26.29;44.50
46412;BME280;32113;42.012;24.870;2023-08-20T06:41:15;99115.78;;;26.18;44.66
46412;BME280;32113;42.012;24.870;2023-08-20T06:43:40;99120.66;;;26.36;45.67
46412;BME280;32113;42.012;24.870;2023-08-20T06:46:06;99113.03;;;26.56;45.04
46412;BME280;32113;42.012;24.870;2023-08-20T06:48:31;99118.34;;;26.79;45.53
46412;BME280;32113;42.012;24.870;2023-08-20T06:50:57;99123.88;;;26.98;46.01
46412;BME280;32113;42.012;24.870;2023-08-20T06:53:22;99116.19;;;27.18;45.81
46412;BME280;32113;42.012;24.870;2023-08-20T06:55:47;99121.66;;;27.38;45.02
46412;BME280;32113;42.012;24.870;2023-08-20T06:58:12;99123.94;;;27.65;43.62
46412;BME280;32113;42.012;24.870;2023-08-20T07:00:38;99125.16;;;27.38;43.53
46412;BME280;32113;42.012;24.870;2023-08-20T07:03:03;99123.22;;;27.40;43.49
46412;BME280;32113;42.012;24.870;2023-08-20T07:05:28;99127.50;;;27.53;43.45
46412;BME280;32113;42.012;24.870;2023-08-20T07:07:54;99127.25;;;27.67;43.56
46412;BME280;32113;42.012;24.870;2023-08-20T07:10:19;99122.03;;;27.89;42.58
46412;BME280;32113;42.012;24.870;2023-08-20T07:12:44;99118.97;;;28.05;42.18
46412;BME280;32113;42.012;24.870;2023-08-20T07:15:09;99112.81;;;28.16;41.09
46412;BME280;32113;42.012;24.870;2023-08-20T07:17:35;99118.53;;;28.21;41.76
46412;BME280;32113;42.012;24.870;2023-08-20T07:20:00;99114.06;;;28.33;41.62
46412;BME280;32113;42.012;24.870;2023-08-20T07:22:25;99113.31;;;28.52;41.93
46412;BME280;32113;42.012;24.870;2023-08-20T07:24:51;99110.38;;;28.67;41.08
46412;BME280;32113;42.012;24.870;2023-08-20T07:27:16;99106.47;;;28.71;40.58
46412;BME280;32113;42.012;24.870;2023-08-20T07:29:41;99109.28;;;28.79;40.74
46412;BME280;32113;42.012;24.870;2023-08-20T07:32:06;99116.06;;;28.93;40.68
46412;BME280;32113;42.012;24.870;2023-08-20T07:34:32;99114.28;;;29.04;40.62
46412;BME280;32113;42.012;24.870;2023-08-20T07:36:59;99114.47;;;29.12;40.41
46412;BME280;32113;42.012;24.870;2023-08-20T07:39:24;99108.97;;;29.35;40.30
46412;BME280;32113;42.012;24.870;2023-08-20T07:41:49;99106.66;;;29.52;38.84
46412;BME280;32113;42.012;24.870;2023-08-20T07:44:15;99106.38;;;29.64;39.09
46412;BME280;32113;42.012;24.870;2023-08-20T07:46:40;99113.06;;;29.88;39.10
46412;BME280;32113;42.012;24.870;2023-08-20T07:49:05;99104.59;;;30.14;38.24
46412;BME280;32113;42.012;24.870;2023-08-20T07:51:30;99105.41;;;30.35;37.92
46412;BME280;32113;42.012;24.870;2023-08-20T07:53:56;99113.16;;;30.56;38.04
46412;BME280;32113;42.012;24.870;2023-08-20T07:56:23;99102.38;;;30.77;37.24
46412;BME280;32113;42.012;24.870;2023-08-20T07:58:48;99102.13;;;30.99;36.85
46412;BME280;32113;42.012;24.870;2023-08-20T08:01:13;99099.53;;;31.17;36.43
46412;BME280;32113;42.012;24.870;2023-08-20T08:03:39;99100.28;;;31.37;35.86
46412;BME280;32113;42.012;24.870;2023-08-20T08:06:05;99101.13;;;31.56;35.67
46412;BME280;32113;42.012;24.870;2023-08-20T08:08:30;99097.50;;;31.75;34.93
46412;BME280;32113;42.012;24.870;2023-08-20T08:10:55;99104.31;;;31.96;34.79
46412;BME280;32113;42.012;24.870;2023-08-20T08:13:21;99100.59;;;32.07;34.74
46412;BME280;32113;42.012;24.870;2023-08-20T08:15:47;99099.41;;;32.28;34.00
46412;BME280;32113;42.012;24.870;2023-08-20T08:18:12;99102.63;;;32.40;32.74
46412;BME280;32113;42.012;24.870;2023-08-20T08:20:38;99105.38;;;32.48;32.67
46412;BME280;32113;42.012;24.870;2023-08-20T08:23:03;99097.81;;;32.35;32.84
46412;BME280;32113;42.012;24.870;2023-08-20T08:25:28;99101.06;;;32.47;33.00
46412;BME280;32113;42.012;24.870;2023-08-20T08:27:54;99094.84;;;32.64;33.02
46412;BME280;32113;42.012;24.870;2023-08-20T08:30:19;99103.03;;;32.80;32.13
46412;BME280;32113;42.012;24.870;2023-08-20T08:32:46;99100.59;;;32.95;31.82
46412;BME280;32113;42.012;24.870;2023-08-20T08:35:12;99091.91;;;33.11;31.87
46412;BME280;32113;42.012;24.870;2023-08-20T08:37:37;99094.94;;;33.24;30.21
46412;BME280;32113;42.012;24.870;2023-08-20T08:40:03;99091.44;;;33.32;29.63
46412;BME280;32113;42.012;24.870;2023-08-20T08:42:32;99086.81;;;33.51;29.71
46412;BME280;32113;42.012;24.870;2023-08-20T08:44:57;99092.84;;;33.61;29.84
46412;BME280;32113;42.012;24.870;2023-08-20T08:47:24;99094.50;;;33.71;29.31
46412;BME280;32113;42.012;24.870;2023-08-20T08:49:50;99093.84;;;33.85;29.20
46412;BME280;32113;42.012;24.870;2023-08-20T08:52:16;99099.34;;;33.92;29.19
46412;BME280;32113;42.012;24.870;2023-08-20T08:54:41;99092.84;;;34.03;28.96
46412;BME280;32113;42.012;24.870;2023-08-20T08:57:06;99105.50;;;34.17;28.56
46412;BME280;32113;42.012;24.870;2023-08-20T08:59:32;99099.53;;;34.15;28.91
46412;BME280;32113;42.012;24.870;2023-08-20T09:01:57;99100.81;;;34.28;28.32
46412;BME280;32113;42.012;24.870;2023-08-20T09:04:23;99101.63;;;34.45;28.13
46412;BME280;32113;42.012;24.870;2023-08-20T09:06:50;99102.09;;;34.57;27.52
46412;BME280;32113;42.012;24.870;2023-08-20T09:09:19;99093.94;;;34.50;27.69
46412;BME280;32113;42.012;24.870;2023-08-20T09:11:44;99098.25;;;34.59;27.84
46412;BME280;32113;42.012;24.870;2023-08-20T09:14:31;99083.59;;;34.72;28.10
46412;BME280;32113;42.012;24.870;2023-08-20T09:19:21;99077.38;;;34.88;27.63
46412;BME280;32113;42.012;24.870;2023-08-20T09:21:46;99077.81;;;35.00;27.86
46412;BME280;32113;42.012;24.870;2023-08-20T09:24:14;99083.09;;;35.08;27.88
46412;BME280;32113;42.012;24.870;2023-08-20T09:26:39;99075.19;;;35.23;26.48
46412;BME280;32113;42.012;24.870;2023-08-20T09:29:09;99073.63;;;35.37;26.58
46412;BME280;32113;42.012;24.870;2023-08-20T09:31:39;99066.38;;;35.46;26.11
46412;BME280;32113;42.012;24.870;2023-08-20T09:34:04;99069.44;;;35.58;26.44
46412;BME280;32113;42.012;24.870;2023-08-20T09:36:31;99067.78;;;35.66;25.87
46412;BME280;32113;42.012;24.870;2023-08-20T09:38:56;99072.03;;;35.75;25.55
46412;BME280;32113;42.012;24.870;2023-08-20T09:41:22;99071.75;;;35.85;25.74
46412;BME280;32113;42.012;24.870;2023-08-20T09:43:48;99063.22;;;35.89;25.62
46412;BME280;32113;42.012;24.870;2023-08-20T09:46:13;99067.03;;;35.95;24.65
46412;BME280;32113;42.012;24.870;2023-08-20T09:48:41;99064.91;;;35.44;24.81
46412;BME280;32113;42.012;24.870;2023-08-20T09:51:10;99062.16;;;35.52;25.64
46412;BME280;32113;42.012;24.870;2023-08-20T09:53:41;99067.03;;;35.72;24.90
46412;BME280;32113;42.012;24.870;2023-08-20T09:56:10;99057.66;;;35.76;24.95
46412;BME280;32113;42.012;24.870;2023-08-20T09:58:37;99060.63;;;35.58;24.68
46412;BME280;32113;42.012;24.870;2023-08-20T10:01:03;99054.25;;;35.67;25.09
46412;BME280;32113;42.012;24.870;2023-08-20T10:03:29;99046.75;;;35.86;25.91
46412;BME280;32113;42.012;24.870;2023-08-20T10:05:55;99047.50;;;35.95;24.74
46412;BME280;32113;42.012;24.870;2023-08-20T10:08:21;99046.13;;;35.99;24.81
46412;BME280;32113;42.012;24.870;2023-08-20T10:10:47;99048.34;;;36.10;25.04
46412;BME280;32113;42.012;24.870;2023-08-20T10:13:13;99041.56;;;36.23;25.59
46412;BME280;32113;42.012;24.870;2023-08-20T10:15:38;99040.91;;;36.36;25.13
46412;BME280;32113;42.012;24.870;2023-08-20T10:18:04;99040.56;;;36.54;25.89
46412;BME280;32113;42.012;24.870;2023-08-20T10:20:29;99040.19;;;36.72;25.51
46412;BME280;32113;42.012;24.870;2023-08-20T10:23:02;99030.75;;;36.91;25.48
46412;BME280;32113;42.012;24.870;2023-08-20T10:25:29;99026.94;;;37.01;23.74
46412;BME280;32113;42.012;24.870;2023-08-20T10:27:54;99035.06;;;36.92;24.05
46412;BME280;32113;42.012;24.870;2023-08-20T10:30:35;99026.16;;;37.07;24.95
46412;BME280;32113;42.012;24.870;2023-08-20T10:33:00;99029.00;;;37.20;24.90
46412;BME280;32113;42.012;24.870;2023-08-20T10:38:06;99018.13;;;37.22;24.31
46412;BME280;32113;42.012;24.870;2023-08-20T10:40:47;99018.81;;;37.31;23.94
46412;BME280;32113;42.012;24.870;2023-08-20T10:48:35;99011.09;;;37.21;23.34
46412;BME280;32113;42.012;24.870;2023-08-20T10:51:14;99012.19;;;37.27;23.84
46412;BME280;32113;42.012;24.870;2023-08-20T10:53:41;99011.63;;;37.31;23.28
46412;BME280;32113;42.012;24.870;2023-08-20T10:56:16;99005.06;;;37.34;23.72
46412;BME280;32113;42.012;24.870;2023-08-20T10:58:42;99013.59;;;37.44;23.04
46412;BME280;32113;42.012;24.870;2023-08-20T11:03:46;99002.25;;;37.42;23.09
46412;BME280;32113;42.012;24.870;2023-08-20T11:06:14;99001.69;;;37.47;23.45
46412;BME280;32113;42.012;24.870;2023-08-20T11:08:39;98996.03;;;37.35;23.27
46412;BME280;32113;42.012;24.870;2023-08-20T11:11:05;98994.94;;;37.29;23.36
46412;BME280;32113;42.012;24.870;2023-08-20T11:13:34;98992.97;;;37.38;23.04
46412;BME280;32113;42.012;24.870;2023-08-20T11:16:00;98989.47;;;37.38;24.16
46412;BME280;32113;42.012;24.870;2023-08-20T11:18:25;98984.94;;;37.38;22.99
46412;BME280;32113;42.012;24.870;2023-08-20T11:20:51;98985.81;;;37.45;22.66
46412;BME280;32113;42.012;24.870;2023-08-20T11:23:16;98979.06;;;37.50;23.09
46412;BME280;32113;42.012;24.870;2023-08-20T11:25:42;98976.38;;;37.50;23.38
46412;BME280;32113;42.012;24.870;2023-08-20T11:28:07;98981.91;;;37.48;22.58
46412;BME280;32113;42.012;24.870;2023-08-20T11:30:33;98980.31;;;37.54;23.70
46412;BME280;32113;42.012;24.870;2023-08-20T11:32:58;98978.28;;;37.56;23.92
46412;BME280;32113;42.012;24.870;2023-08-20T11:35:24;98969.88;;;37.59;23.03
46412;BME280;32113;42.012;24.870;2023-08-20T11:37:50;98974.19;;;37.60;24.09
46412;BME280;32113;42.012;24.870;2023-08-20T11:40:16;98970.75;;;37.66;23.94
46412;BME280;32113;42.012;24.870;2023-08-20T11:42:42;98966.56;;;37.57;22.88
46412;BME280;32113;42.012;24.870;2023-08-20T11:45:09;98962.88;;;37.58;23.58
46412;BME280;32113;42.012;24.870;2023-08-20T11:47:38;98962.09;;;37.64;23.10
46412;BME280;32113;42.012;24.870;2023-08-20T11:50:04;98960.69;;;37.68;23.61
46412;BME280;32113;42.012;24.870;2023-08-20T11:52:33;98961.13;;;37.72;23.75
46412;BME280;32113;42.012;24.870;2023-08-20T11:54:59;98958.88;;;37.76;23.65
46412;BME280;32113;42.012;24.870;2023-08-20T11:57:24;98959.47;;;37.71;22.74
46412;BME280;32113;42.012;24.870;2023-08-20T11:59:50;98954.19;;;37.56;22.97
46412;BME280;32113;42.012;24.870;2023-08-20T12:02:15;98944.31;;;37.56;23.36
46412;BME280;32113;42.012;24.870;2023-08-20T12:04:40;98941.72;;;37.63;23.73
46412;BME280;32113;42.012;24.870;2023-08-20T12:07:09;98934.50;;;37.64;23.26
46412;BME280;32113;42.012;24.870;2023-08-20T12:09:35;98934.25;;;37.58;22.47
46412;BME280;32113;42.012;24.870;2023-08-20T12:12:01;98937.53;;;37.54;23.36
46412;BME280;32113;42.012;24.870;2023-08-20T12:14:26;98931.94;;;37.49;23.37
46412;BME280;32113;42.012;24.870;2023-08-20T12:16:53;98927.63;;;37.54;22.39
46412;BME280;32113;42.012;24.870;2023-08-20T12:19:19;98919.03;;;37.59;23.30
46412;BME280;32113;42.012;24.870;2023-08-20T12:21:44;98921.91;;;37.57;23.10
46412;BME280;32113;42.012;24.870;2023-08-20T12:24:10;98917.66;;;37.63;23.30
46412;BME280;32113;42.012;24.870;2023-08-20T12:26:36;98913.94;;;37.64;22.56
46412;BME280;32113;42.012;24.870;2023-08-20T12:29:01;98913.31;;;37.62;22.81
46412;BME280;32113;42.012;24.870;2023-08-20T12:31:26;98911.78;;;37.53;22.20
46412;BME280;32113;42.012;24.870;2023-08-20T12:33:51;98909.69;;;37.48;22.71
46412;BME280;32113;42.012;24.870;2023-08-20T12:36:17;98910.28;;;37.43;22.88
46412;BME280;32113;42.012;24.870;2023-08-20T12:38:42;98900.84;;;37.47;23.18
46412;BME280;32113;42.012;24.870;2023-08-20T12:41:07;98904.78;;;37.52;22.80
46412;BME280;32113;42.012;24.870;2023-08-20T12:43:33;98905.56;;;37.45;22.87
46412;BME280;32113;42.012;24.870;2023-08-20T12:45:58;98897.97;;;37.49;22.71
46412;BME280;32113;42.012;24.870;2023-08-20T12:48:23;98897.59;;;37.52;22.38
46412;BME280;32113;42.012;24.870;2023-08-20T12:50:48;98895.19;;;37.29;22.95
46412;BME280;32113;42.012;24.870;2023-08-20T12:53:14;98895.16;;;37.07;22.69
46412;BME280;32113;42.012;24.870;2023-08-20T12:55:39;98885.88;;;37.03;22.92
46412;BME280;32113;42.012;24.870;2023-08-20T12:58:04;98882.00;;;37.05;23.46
46412;BME280;32113;42.012;24.870;2023-08-20T13:00:30;98881.44;;;37.10;22.95
46412;BME280;32113;42.012;24.870;2023-08-20T13:02:55;98884.63;;;37.20;23.87
46412;BME280;32113;42.012;24.870;2023-08-20T13:05:24;98877.69;;;37.33;23.03
46412;BME280;32113;42.012;24.870;2023-08-20T13:07:50;98873.22;;;37.40;23.49
46412;BME280;32113;42.012;24.870;2023-08-20T13:10:15;98867.41;;;37.30;23.01